createdAt,value
2023-04-17T00:01:00.965Z,92740.00
2023-04-17T00:03:27.972Z,92730.47
2023-04-17T00:05:56.667Z,92755.09
2023-04-17T00:08:23.040Z,92750.09
2023-04-17T00:11:00.283Z,92745.28
2023-04-17T00:13:33.239Z,92742.38
2023-04-17T00:15:59.928Z,92741.03
2023-04-17T00:18:26.268Z,92730.16
2023-04-17T00:20:53.507Z,92721.19
2023-04-17T00:23:20.477Z,92720.38
2023-04-17T00:25:46.798Z,92710.28
2023-04-17T00:28:13.123Z,92709.22
2023-04-17T00:30:39.679Z,92704.22
2023-04-17T00:33:06.036Z,92707.66
2023-04-17T00:35:32.414Z,92705.75
2023-04-17T00:37:59.166Z,92707.13
2023-04-17T00:40:25.736Z,92705.00
2023-04-17T00:42:55.974Z,92704.50
2023-04-17T00:45:22.479Z,92702.97
2023-04-17T00:47:50.109Z,92714.59
2023-04-17T00:50:16.823Z,92726.22
2023-04-17T00:52:45.081Z,92715.41
2023-04-17T00:55:12.855Z,92721.19
2023-04-17T00:57:40.630Z,92721.94
2023-04-17T01:00:09.341Z,92721.41
2023-04-17T01:02:36.519Z,92715.56
2023-04-17T01:05:03.178Z,92725.63
2023-04-17T01:07:30.488Z,92716.03
2023-04-17T01:09:57.034Z,92713.41
2023-04-17T01:12:25.169Z,92718.41
2023-04-17T01:14:56.382Z,92712.56
2023-04-17T01:17:26.040Z,92704.66
2023-04-17T01:19:52.721Z,92716.03
2023-04-17T01:22:22.238Z,92731.13
2023-04-17T01:24:49.224Z,92735.09
2023-04-17T01:27:15.750Z,92736.44
2023-04-17T01:29:43.462Z,92743.53
2023-04-17T01:32:10.124Z,92738.50
2023-04-17T01:34:37.766Z,92743.53
2023-04-17T01:37:04.380Z,92752.53
2023-04-17T01:39:30.924Z,92743.50
2023-04-17T01:41:57.551Z,92752.75
2023-04-17T01:44:23.913Z,92764.19
2023-04-17T01:46:51.111Z,92779.50
2023-04-17T01:49:18.082Z,92778.47
2023-04-17T01:51:44.422Z,92785.34
2023-04-17T01:54:10.788Z,92802.56
2023-04-17T01:59:21.085Z,92798.88
2023-04-17T02:01:49.167Z,92806.50
2023-04-17T02:04:15.886Z,92804.38
2023-04-17T02:06:42.809Z,92792.72
2023-04-17T02:09:09.336Z,92806.50
2023-04-17T02:11:35.789Z,92814.44
2023-04-17T02:14:02.715Z,92810.25
2023-04-17T02:16:29.510Z,92807.31
2023-04-17T02:18:55.933Z,92805.47
2023-04-17T02:21:22.614Z,92810.97
2023-04-17T02:23:49.258Z,92807.00
2023-04-17T02:26:15.922Z,92798.44
2023-04-17T02:28:45.837Z,92808.53
2023-04-17T02:31:13.064Z,92816.44
2023-04-17T02:33:39.671Z,92823.13
2023-04-17T02:36:07.159Z,92826.59
2023-04-17T02:38:33.641Z,92830.78
2023-04-17T02:41:00.487Z,92836.28
2023-04-17T02:43:26.810Z,92836.84
2023-04-17T02:45:53.125Z,92820.53
2023-04-17T02:48:19.929Z,92812.31
2023-04-17T02:50:46.408Z,92806.50
2023-04-17T02:53:13.063Z,92819.22
2023-04-17T02:55:39.792Z,92817.38
2023-04-17T02:58:06.216Z,92834.59
2023-04-17T03:00:32.676Z,92837.25
2023-04-17T03:02:59.748Z,92855.47
2023-04-17T03:05:30.082Z,92859.16
2023-04-17T03:07:59.352Z,92859.16
2023-04-17T03:10:25.745Z,92863.63
2023-04-17T03:12:52.134Z,92855.97
2023-04-17T03:15:18.901Z,92866.00
2023-04-17T03:17:45.650Z,92873.94
2023-04-17T03:20:12.044Z,92879.81
2023-04-17T03:22:38.756Z,92883.75
2023-04-17T03:25:05.801Z,92883.19
2023-04-17T03:27:32.124Z,92885.84
2023-04-17T03:29:58.885Z,92896.91
2023-04-17T03:32:25.234Z,92888.47
2023-04-17T03:34:51.682Z,92881.28
2023-04-17T03:37:18.626Z,92885.28
2023-04-17T03:39:44.945Z,92889.25
2023-04-17T03:42:14.408Z,92874.94
2023-04-17T03:44:41.535Z,92878.88
2023-04-17T03:47:07.864Z,92873.91
2023-04-17T03:49:34.184Z,92873.09
2023-04-17T03:52:00.943Z,92875.22
2023-04-17T03:54:27.365Z,92884.50
2023-04-17T03:56:53.693Z,92881.03
2023-04-17T03:59:20.773Z,92884.41
2023-04-17T04:01:47.159Z,92882.59
2023-04-17T04:04:13.692Z,92887.34
2023-04-17T04:06:43.144Z,92897.41
2023-04-17T04:09:09.665Z,92887.06
2023-04-17T04:11:36.102Z,92890.25
2023-04-17T04:14:02.943Z,92889.69
2023-04-17T04:16:29.295Z,92887.31
2023-04-17T04:18:55.630Z,92884.41
2023-04-17T04:21:22.396Z,92874.59
2023-04-17T04:23:49.696Z,92885.19
2023-04-17T04:26:16.940Z,92874.59
2023-04-17T04:28:44.400Z,92863.72
2023-04-17T04:31:11.309Z,92848.56
2023-04-17T04:33:37.643Z,92865.28
2023-04-17T04:36:04.528Z,92890.19
2023-04-17T04:38:32.273Z,92892.31
2023-04-17T04:41:10.458Z,92887.00
2023-04-17T04:43:36.971Z,92888.34
2023-04-17T04:46:03.666Z,92886.72
2023-04-17T04:48:30.635Z,92887.50
2023-04-17T04:50:57.067Z,92892.31
2023-04-17T04:53:23.464Z,92902.31
2023-04-17T04:55:50.301Z,92908.13
2023-04-17T04:58:16.620Z,92915.25
2023-04-17T05:00:43.562Z,92903.59
2023-04-17T05:03:10.494Z,92914.69
2023-04-17T05:05:37.699Z,92917.28
2023-04-17T05:08:04.682Z,92916.28
2023-04-17T05:10:31.296Z,92929.47
2023-04-17T05:12:57.877Z,92930.28
2023-04-17T05:15:24.632Z,92937.94
2023-04-17T05:17:51.743Z,92949.84
2023-04-17T05:20:18.707Z,92954.84
2023-04-17T05:22:45.520Z,92950.59
2023-04-17T05:25:12.482Z,92963.03
2023-04-17T05:27:38.844Z,92964.59
2023-04-17T05:30:06.038Z,92967.00
2023-04-17T05:32:32.904Z,92973.31
2023-04-17T05:34:59.249Z,92961.13
2023-04-17T05:37:25.817Z,92964.78
2023-04-17T05:39:53.022Z,92974.91
2023-04-17T05:42:19.727Z,92975.94
2023-04-17T05:44:46.104Z,92974.84
2023-04-17T05:47:12.483Z,92979.09
2023-04-17T05:49:39.853Z,93001.09
2023-04-17T05:52:06.237Z,93005.31
2023-04-17T05:54:32.663Z,93006.59
2023-04-17T05:56:59.344Z,93005.28
2023-04-17T05:59:25.749Z,93016.13
2023-04-17T06:01:52.386Z,93009.47
2023-04-17T06:04:19.460Z,93017.69
2023-04-17T06:06:45.958Z,93007.13
2023-04-17T06:09:12.826Z,93021.91
2023-04-17T06:11:39.223Z,93042.00
2023-04-17T06:14:05.800Z,93060.47
2023-04-17T06:16:32.559Z,93054.09
2023-04-17T06:18:58.923Z,93059.38
2023-04-17T06:21:25.692Z,93067.31
2023-04-17T06:23:52.719Z,93075.50
2023-04-17T06:26:19.120Z,93075.47
2023-04-17T06:28:45.506Z,93087.38
2023-04-17T06:31:12.471Z,93079.94
2023-04-17T06:33:38.932Z,93066.72
2023-04-17T06:36:05.429Z,93065.66
2023-04-17T06:38:32.154Z,93063.81
2023-04-17T06:40:58.487Z,93046.84
2023-04-17T06:43:24.809Z,93063.56
2023-04-17T06:45:51.582Z,93054.56
2023-04-17T06:48:17.998Z,93021.09
2023-04-17T06:50:44.310Z,93015.22
2023-04-17T06:53:10.662Z,93004.09
2023-04-17T06:55:37.489Z,93000.88
2023-04-17T06:58:04.096Z,92989.44
2023-04-17T07:00:30.906Z,92981.16
2023-04-17T07:02:57.746Z,92942.34
2023-04-17T07:05:24.175Z,92932.72
2023-04-17T07:07:50.787Z,92958.38
2023-04-17T07:10:19.859Z,93004.13
2023-04-17T07:12:46.179Z,92995.09
2023-04-17T07:15:12.611Z,92988.03
2023-04-17T07:17:39.431Z,92994.91
2023-04-17T07:20:07.130Z,92976.03
2023-04-17T07:22:34.442Z,92944.59
2023-04-17T07:25:01.119Z,92897.28
2023-04-17T07:27:27.446Z,92838.34
2023-04-17T07:29:55.668Z,92769.00
2023-04-17T07:32:24.295Z,92753.66
2023-04-17T07:34:50.825Z,92737.97
2023-04-17T07:37:17.527Z,92738.47
2023-04-17T07:39:44.804Z,92722.06
2023-04-17T07:42:11.378Z,92715.00
2023-04-17T07:44:40.932Z,92744.66
2023-04-17T07:47:07.358Z,92804.13
2023-04-17T07:49:34.263Z,92825.28
2023-04-17T07:52:00.981Z,92821.09
2023-04-17T07:54:27.346Z,92805.84
2023-04-17T07:56:57.694Z,92830.69
2023-04-17T07:59:24.460Z,92784.06
2023-04-17T08:01:52.384Z,92816.78
2023-04-17T08:04:18.998Z,92796.16
2023-04-17T08:06:45.927Z,92798.94
2023-04-17T08:09:12.407Z,92827.75
2023-04-17T08:11:53.330Z,92870.69
2023-04-17T08:14:24.257Z,92913.06
2023-04-17T08:16:50.634Z,92949.78
2023-04-17T08:19:17.013Z,92968.97
2023-04-17T08:21:43.622Z,92991.34
2023-04-17T08:24:09.960Z,93007.81
2023-04-17T08:26:36.386Z,92983.00
2023-04-17T08:29:04.749Z,92995.63
2023-04-17T08:31:31.758Z,93031.06
2023-04-17T08:34:10.843Z,93017.50
2023-04-17T08:36:40.550Z,93036.72
2023-04-17T08:39:07.056Z,93028.84
2023-04-17T08:41:43.521Z,93013.69
2023-04-17T08:44:10.153Z,93041.31
2023-04-17T08:46:37.259Z,93011.47
2023-04-17T08:49:04.939Z,93070.78
2023-04-17T08:51:31.422Z,93052.41
2023-04-17T08:53:57.755Z,93063.03
2023-04-17T08:56:24.683Z,93077.34
2023-04-17T08:58:51.034Z,93077.22
2023-04-17T09:01:18.181Z,93108.66
2023-04-17T09:03:47.864Z,93115.00
2023-04-17T09:06:15.383Z,93091.44
2023-04-17T09:09:00.424Z,93027.84
2023-04-17T09:11:27.244Z,93029.94
2023-04-17T09:13:54.359Z,93046.28
2023-04-17T09:16:21.482Z,93108.22
2023-04-17T09:18:48.411Z,93119.09
2023-04-17T09:21:18.882Z,93103.75
2023-04-17T09:23:56.170Z,93146.03
2023-04-17T09:26:25.402Z,93174.44
2023-04-17T09:29:09.041Z,93206.38
2023-04-17T09:31:37.852Z,93207.53
2023-04-17T09:34:10.535Z,93298.28
2023-04-17T09:36:38.705Z,93289.16
2023-04-17T09:39:16.748Z,93261.06
2023-04-17T09:41:43.134Z,93232.22
2023-04-17T09:44:09.797Z,93273.16
2023-04-17T09:46:43.134Z,93221.81
2023-04-17T09:49:15.641Z,93202.53
2023-04-17T09:51:42.286Z,93279.91
2023-04-17T09:54:11.756Z,93292.44
2023-04-17T09:56:38.894Z,93319.69
2023-04-17T09:59:07.205Z,93401.09
2023-04-17T10:01:35.622Z,93403.47
2023-04-17T10:04:03.662Z,93403.25
2023-04-17T10:06:31.969Z,93368.94
2023-04-17T10:08:58.494Z,93466.69
2023-04-17T10:11:30.174Z,93582.00
2023-04-17T10:14:11.311Z,93564.97
2023-04-17T10:16:40.594Z,93594.94
2023-04-17T10:19:36.616Z,93540.47
2023-04-17T10:22:20.189Z,93637.88
2023-04-17T10:24:48.527Z,93628.34
2023-04-17T10:27:27.300Z,93698.47
2023-04-17T10:29:56.609Z,93763.25
2023-04-17T10:32:25.407Z,93790.53
2023-04-17T10:34:54.028Z,93724.00
2023-04-17T10:37:22.802Z,93721.28
2023-04-17T10:39:55.949Z,93722.28
2023-04-17T10:42:24.110Z,93712.47
2023-04-17T10:44:52.056Z,93730.03
2023-04-17T10:47:22.731Z,93767.47
2023-04-17T10:49:58.974Z,93748.44
2023-04-17T10:52:38.610Z,93733.53
2023-04-17T10:55:17.578Z,93767.19
2023-04-17T10:58:11.829Z,93784.78
2023-04-17T11:00:49.492Z,93737.75
2023-04-17T11:03:16.486Z,93678.16
2023-04-17T11:05:46.890Z,93692.41
2023-04-17T11:08:14.501Z,93717.59
2023-04-17T11:10:41.413Z,93731.13
2023-04-17T11:13:07.785Z,93686.38
2023-04-17T11:15:35.514Z,93640.09
2023-04-17T11:18:03.732Z,93712.47
2023-04-17T11:20:32.627Z,93813.97
2023-04-17T11:23:03.946Z,93807.16
2023-04-17T11:25:31.893Z,93768.25
2023-04-17T11:28:02.914Z,93715.59
2023-04-17T11:30:34.984Z,93712.94
2023-04-17T11:33:03.464Z,93786.25
2023-04-17T11:35:35.306Z,93912.25
2023-04-17T11:38:21.939Z,93912.16
2023-04-17T11:40:59.030Z,93888.47
2023-04-17T11:43:27.134Z,93904.75
2023-04-17T11:45:58.157Z,93877.75
2023-04-17T11:48:29.015Z,93901.97
2023-04-17T11:51:01.256Z,93860.19
2023-04-17T11:53:27.822Z,93876.66
2023-04-17T11:56:16.809Z,93867.19
2023-04-17T11:58:54.176Z,93873.06
2023-04-17T12:01:25.189Z,93872.78
2023-04-17T12:03:55.950Z,93908.81
2023-04-17T12:06:24.099Z,93911.84
2023-04-17T12:08:53.680Z,93933.09
2023-04-17T12:11:26.097Z,93911.06
2023-04-17T12:13:54.020Z,93899.63
2023-04-17T12:16:20.629Z,93912.97
2023-04-17T12:18:47.523Z,93896.44
2023-04-17T12:21:14.374Z,93888.44
2023-04-17T12:23:41.430Z,93844.56
2023-04-17T12:26:08.738Z,93813.09
2023-04-17T12:28:35.801Z,93792.69
2023-04-17T12:31:03.893Z,93779.22
2023-04-17T12:33:31.416Z,93786.38
2023-04-17T12:35:58.391Z,93753.06
2023-04-17T12:38:24.782Z,93718.84
2023-04-17T12:40:51.687Z,93724.97
2023-04-17T12:43:18.156Z,93716.47
2023-04-17T12:45:47.603Z,93726.28
2023-04-17T12:48:15.242Z,93723.88
2023-04-17T12:50:44.966Z,93747.25
2023-04-17T12:53:13.485Z,93713.78
2023-04-17T12:55:41.689Z,93681.56
2023-04-17T12:58:10.005Z,93696.16
2023-04-17T13:00:38.015Z,93666.72
2023-04-17T13:03:05.584Z,93720.09
2023-04-17T13:05:32.879Z,93691.94
2023-04-17T13:07:59.396Z,93674.75
2023-04-17T13:10:26.014Z,93665.53
2023-04-17T13:12:53.119Z,93667.91
2023-04-17T13:15:19.613Z,93689.22
2023-04-17T13:17:46.484Z,93748.44
2023-04-17T13:20:13.319Z,93790.88
2023-04-17T13:22:39.761Z,93820.00
2023-04-17T13:25:07.285Z,93820.03
2023-04-17T13:27:33.751Z,93789.34
2023-04-17T13:30:00.140Z,93726.00
2023-04-17T13:32:26.776Z,93721.84
2023-04-17T13:34:53.531Z,93738.06
2023-04-17T13:37:20.045Z,93849.69
2023-04-17T13:39:46.401Z,93920.22
2023-04-17T13:42:17.108Z,93904.66
2023-04-17T13:44:43.477Z,93875.75
2023-04-17T13:47:09.820Z,93925.06
2023-04-17T13:49:36.608Z,93977.63
2023-04-17T13:52:03.661Z,93956.41
2023-04-17T13:54:30.161Z,93995.38
2023-04-17T13:56:57.596Z,94005.81
2023-04-17T13:59:24.443Z,94010.53
2023-04-17T14:01:51.122Z,93971.47
2023-04-17T14:04:17.726Z,93972.34
2023-04-17T14:06:47.385Z,93969.47
2023-04-17T14:09:13.947Z,94015.56
2023-04-17T14:11:40.954Z,94008.91
2023-04-17T14:14:07.593Z,93967.56
2023-04-17T14:16:34.132Z,94003.06
2023-04-17T14:19:12.745Z,94003.63
2023-04-17T14:21:41.084Z,93972.47
2023-04-17T14:24:07.735Z,93976.97
2023-04-17T14:26:34.219Z,93950.81
2023-04-17T14:29:01.075Z,93936.91
2023-04-17T14:31:27.447Z,93919.63
2023-04-17T14:33:54.417Z,93886.34
2023-04-17T14:36:21.284Z,93870.22
2023-04-17T14:38:51.022Z,93853.72
2023-04-17T14:41:17.956Z,93855.50
2023-04-17T14:43:45.069Z,93861.66
2023-04-17T14:46:11.731Z,93880.31
2023-04-17T14:48:48.156Z,93842.63
2023-04-17T14:51:22.524Z,93811.56
2023-04-17T14:53:48.908Z,93772.19
2023-04-17T14:56:15.822Z,93740.56
2023-04-17T14:58:43.596Z,93703.31
2023-04-17T15:01:10.405Z,93698.25
2023-04-17T15:03:37.134Z,93668.66
2023-04-17T15:06:04.352Z,93643.81
2023-04-17T15:08:31.134Z,93624.81
2023-04-17T15:10:58.575Z,93608.66
2023-04-17T15:13:25.369Z,93591.22
2023-04-17T15:15:51.772Z,93568.22
2023-04-17T15:18:18.470Z,93548.91
2023-04-17T15:20:44.909Z,93538.06
2023-04-17T15:23:11.284Z,93548.09
2023-04-17T15:25:37.964Z,93515.28
2023-04-17T15:28:04.679Z,93520.84
2023-04-17T15:30:30.983Z,93516.88
2023-04-17T15:32:57.740Z,93537.00
2023-04-17T15:35:24.092Z,93533.28
2023-04-17T15:37:51.037Z,93522.13
2023-04-17T15:40:17.465Z,93523.22
2023-04-17T15:42:43.975Z,93523.22
2023-04-17T15:45:11.104Z,93512.56
2023-04-17T15:47:37.558Z,93500.78
2023-04-17T15:50:04.877Z,93498.63
2023-04-17T15:52:31.270Z,93512.19
2023-04-17T15:54:57.613Z,93551.25
2023-04-17T15:57:24.636Z,93544.78
2023-04-17T15:59:51.047Z,93563.63
2023-04-17T16:02:17.507Z,93556.94
2023-04-17T16:04:44.518Z,93593.63
2023-04-17T16:07:11.942Z,93611.59
2023-04-17T16:09:39.683Z,93646.06
2023-04-17T16:12:10.603Z,93650.28
2023-04-17T16:14:37.253Z,93680.97
2023-04-17T16:17:05.319Z,93680.44
2023-04-17T16:19:32.617Z,93699.97
2023-04-17T16:21:59.376Z,93702.69
2023-04-17T16:24:26.019Z,93686.56
2023-04-17T16:27:01.400Z,93680.75
2023-04-17T16:29:27.821Z,93693.47
2023-04-17T16:31:55.413Z,93683.13
2023-04-17T16:34:22.381Z,93690.00
2023-04-17T16:36:49.555Z,93686.31
2023-04-17T16:39:16.150Z,93704.03
2023-04-17T16:41:43.453Z,93688.97
2023-04-17T16:44:09.821Z,93690.56
2023-04-17T16:46:52.014Z,93681.28
2023-04-17T16:49:22.889Z,93692.66
2023-04-17T16:51:49.385Z,93706.94
2023-04-17T16:54:15.827Z,93713.84
2023-04-17T16:56:43.081Z,93706.44
2023-04-17T16:59:09.411Z,93709.09
2023-04-17T17:01:35.875Z,93708.03
2023-04-17T17:04:02.674Z,93719.44
2023-04-17T17:06:29.598Z,93709.09
2023-04-17T17:08:55.936Z,93707.72
2023-04-17T17:11:22.816Z,93722.84
2023-04-17T17:13:51.276Z,93721.78
2023-04-17T17:16:19.103Z,93737.97
2023-04-17T17:18:46.469Z,93771.56
2023-04-17T17:21:13.690Z,93763.63
2023-04-17T17:23:40.441Z,93770.47
2023-04-17T17:26:07.362Z,93777.31
2023-04-17T17:28:35.014Z,93792.03
2023-04-17T17:31:07.646Z,93790.41
2023-04-17T17:33:35.239Z,93778.50
2023-04-17T17:36:01.932Z,93783.47
2023-04-17T17:38:28.742Z,93769.94
2023-04-17T17:40:58.428Z,93771.25
2023-04-17T17:43:25.207Z,93763.59
2023-04-17T17:45:52.293Z,93757.94
2023-04-17T17:48:20.253Z,93752.75
2023-04-17T17:50:47.459Z,93735.81
2023-04-17T17:53:13.912Z,93726.50
2023-04-17T17:55:40.331Z,93724.63
2023-04-17T17:58:08.867Z,93721.50
2023-04-17T18:00:35.682Z,93724.06
2023-04-17T18:03:02.436Z,93715.09
2023-04-17T18:05:29.446Z,93700.78
2023-04-17T18:07:55.994Z,93693.94
2023-04-17T18:10:22.549Z,93693.91
2023-04-17T18:12:50.162Z,93687.84
2023-04-17T18:15:16.596Z,93689.91
2023-04-17T18:17:42.994Z,93698.63
2023-04-17T18:20:10.293Z,93703.31
2023-04-17T18:22:38.242Z,93697.03
2023-04-17T18:25:06.409Z,93683.81
2023-04-17T18:27:33.220Z,93675.66
2023-04-17T18:29:59.580Z,93663.78
2023-04-17T18:32:26.578Z,93665.59
2023-04-17T18:34:52.896Z,93679.00
2023-04-17T18:37:19.212Z,93672.66
2023-04-17T18:39:45.602Z,93665.84
2023-04-17T18:42:11.938Z,93672.34
2023-04-17T18:44:38.652Z,93678.44
2023-04-17T18:47:05.182Z,93674.75
2023-04-17T18:49:31.518Z,93663.66
2023-04-17T18:51:58.320Z,93654.72
2023-04-17T18:54:24.692Z,93665.81
2023-04-17T18:56:51.188Z,93664.44
2023-04-17T18:59:19.949Z,93657.81
2023-04-17T19:01:46.305Z,93670.78
2023-04-17T19:04:13.121Z,93665.75
2023-04-17T19:06:40.102Z,93673.66
2023-04-17T19:09:06.538Z,93663.63
2023-04-17T19:11:33.425Z,93678.38
2023-04-17T19:14:00.053Z,93669.72
2023-04-17T19:16:26.749Z,93671.50
2023-04-17T19:18:53.092Z,93673.31
2023-04-17T19:21:19.418Z,93676.22
2023-04-17T19:23:47.360Z,93676.75
2023-04-17T19:26:15.688Z,93671.75
2023-04-17T19:28:42.457Z,93664.63
2023-04-17T19:31:09.079Z,93670.38
2023-04-17T19:33:35.618Z,93678.59
2023-04-17T19:36:05.371Z,93680.38
2023-04-17T19:38:32.105Z,93684.56
2023-04-17T19:41:19.283Z,93678.25
2023-04-17T19:43:46.630Z,93679.00
2023-04-17T19:46:13.911Z,93684.00
2023-04-17T19:48:42.119Z,93684.56
2023-04-17T19:51:09.131Z,93675.28
2023-04-17T19:53:37.844Z,93674.53
2023-04-17T19:56:07.635Z,93666.34
2023-04-17T19:58:35.246Z,93660.34
2023-04-17T20:01:01.744Z,93671.31
2023-04-17T20:03:29.699Z,93660.03
2023-04-17T20:05:57.285Z,93677.56
2023-04-17T20:08:24.590Z,93668.63
2023-04-17T20:10:51.266Z,93673.84
2023-04-17T20:13:17.652Z,93674.13
2023-04-17T20:15:43.999Z,93677.50
2023-04-17T20:18:11.489Z,93685.34
2023-04-17T20:20:39.714Z,93689.00
2023-04-17T20:23:06.233Z,93693.19
2023-04-17T20:25:32.604Z,93696.84
2023-04-17T20:27:59.576Z,93695.00
2023-04-17T20:30:26.036Z,93697.88
2023-04-17T20:32:52.483Z,93711.03
2023-04-17T20:35:23.802Z,93709.44
2023-04-17T20:37:51.526Z,93714.41
2023-04-17T20:40:18.349Z,93722.84
2023-04-17T20:42:44.783Z,93717.03
2023-04-17T20:45:11.444Z,93725.16
2023-04-17T20:47:46.371Z,93723.59
2023-04-17T20:50:21.609Z,93716.72
2023-04-17T20:52:48.362Z,93727.84
2023-04-17T20:55:15.129Z,93722.63
2023-04-17T20:57:41.710Z,93732.53
2023-04-17T21:00:08.949Z,93727.59
2023-04-17T21:02:36.039Z,93730.97
2023-04-17T21:05:02.584Z,93721.22
2023-04-17T21:07:30.398Z,93726.81
2023-04-17T21:09:57.228Z,93720.50
2023-04-17T21:12:23.567Z,93727.75
2023-04-17T21:14:50.390Z,93728.88
2023-04-17T21:17:16.732Z,93733.28
2023-04-17T21:19:43.072Z,93743.00
2023-04-17T21:22:11.505Z,93733.47
2023-04-17T21:24:39.663Z,93734.50
2023-04-17T21:27:06.050Z,93732.25
2023-04-17T21:29:32.374Z,93726.44
2023-04-17T21:31:59.324Z,93738.22
2023-04-17T21:34:25.834Z,93745.06
2023-04-17T21:36:53.547Z,93741.09
2023-04-17T21:39:20.962Z,93739.28
2023-04-17T21:41:47.429Z,93731.44
2023-04-17T21:44:13.988Z,93735.66
2023-04-17T21:46:43.479Z,93736.47
2023-04-17T21:49:10.066Z,93746.47
2023-04-17T21:51:36.397Z,93749.78
2023-04-17T21:54:02.775Z,93747.69
2023-04-17T21:56:29.584Z,93750.59
2023-04-17T21:58:56.016Z,93755.06
2023-04-17T22:01:22.409Z,93756.06
2023-04-17T22:03:49.250Z,93755.06
2023-04-17T22:06:15.639Z,93767.16
2023-04-17T22:08:42.000Z,93766.78
2023-04-17T22:11:08.763Z,93763.53
2023-04-17T22:13:35.096Z,93768.16
2023-04-17T22:16:02.336Z,93772.25
2023-04-17T22:18:29.189Z,93781.66
2023-04-17T22:20:55.640Z,93789.72
2023-04-17T22:23:21.963Z,93790.09
2023-04-17T22:25:48.725Z,93805.47
2023-04-17T22:28:15.602Z,93805.63
2023-04-17T22:30:41.958Z,93814.91
2023-04-17T22:33:08.463Z,93818.97
2023-04-17T22:35:35.082Z,93825.44
2023-04-17T22:38:01.407Z,93836.69
2023-04-17T22:40:29.752Z,93839.31
2023-04-17T22:42:56.522Z,93841.88
2023-04-17T22:45:22.853Z,93840.44
2023-04-17T22:47:49.235Z,93841.09
2023-04-17T22:50:16.219Z,93847.66
2023-04-17T22:52:42.581Z,93850.59
2023-04-17T22:55:09.570Z,93843.06
2023-04-17T22:57:36.406Z,93840.78
2023-04-17T23:00:03.757Z,93820.63
2023-04-17T23:02:30.200Z,93812.25
2023-04-17T23:04:57.063Z,93802.34
2023-04-17T23:07:23.408Z,93800.75
2023-04-17T23:09:49.741Z,93798.66
2023-04-17T23:12:16.402Z,93792.44
2023-04-17T23:14:44.090Z,93783.84
2023-04-17T23:17:10.430Z,93787.16
2023-04-17T23:19:37.200Z,93789.84
2023-04-17T23:22:03.556Z,93787.78
2023-04-17T23:24:33.619Z,93779.31
2023-04-17T23:27:01.947Z,93778.75
2023-04-17T23:29:28.718Z,93774.53
2023-04-17T23:31:55.113Z,93780.34
2023-04-17T23:34:21.833Z,93785.00
2023-04-17T23:36:48.905Z,93769.88
2023-04-17T23:39:15.291Z,93779.25
2023-04-17T23:41:42.599Z,93773.81
2023-04-17T23:44:09.939Z,93766.56
2023-04-17T23:46:36.729Z,93767.91
2023-04-17T23:49:03.609Z,93773.38
2023-04-17T23:51:31.119Z,93768.72
2023-04-17T23:53:59.390Z,93761.00
2023-04-17T23:56:25.932Z,93768.22
2023-04-17T23:58:52.916Z,93759.56
